Updated26/02/2020 11:15 
 

GeoURL
free counters
Scottish Weather Network UK Weather Network Cumulus Top Weather Sites

Peebles Weather - Nearby METAR Reports

Raw Data, Raw Data Expanded

Ignore low humidity and Dew Point values. Something wrong with the sensor.
Daytime temperatures are in direct sunlight so may be higher than official air temperature values.
As with any other website, we log your IP address and browser type in the server logs for diagnostic reasons. Cookies are used to record visit time and gauges preferences. No personal information is stored or processed.

All times are in local time (GMT, or BST in summer) unless specified.

2020/02/26 10:50 EGPH 261050Z 26009KT CAVOK 04/01 Q0999
5.8°C 0.0 mm 0.3 mm 2.7 mm 8.2 mph 12.1 mph 994.5 hPa 33% X-Ray Solar Flare Level
Planetary K-Index
Planetary K-Index History
Station Warn Rain Snow Flood Wind Ltng Heat Cold Glob Moon Temp Rain 1h Rain Wed Rain 24h Wind 10m Gust Pressure Hum Proton Levels
Lost sensor contact!!! Snow
1.087 m Waxing Crescent Cold F3-WSW F: A: Kp:0 SSN:0

METAR Reports

 

EGPH - Edinburgh Airpor, United Kingdom
Distance from station: NNW 22mi, 36km
Updated: 26/02/2020 10:50
Clear
Clear
 Wind from W
Wind: W 10 mph , 17 km/h
Temperature: 4°C
Wind Chill: 0°C
Dew Point: 1°C
Humidity: 81%
Barometer: 999 hPa
Summary: Clear
Visibility: greater than 7 miles , 10 km
2020/02/26 10:50 EGPH 261050Z 26009KT CAVOK 04/01 Q0999
EGOM - Spadeadam, United Kingdom
Distance from station: SSE 49mi, 79km
Updated: 26/02/2020 10:50
Mostly cloudy
Mostly cloudy
 Wind from W
Wind: W 15 mph , 24 km/h
Temperature: 1°C
Wind Chill: -4°C
Dew Point: 1°C
Humidity: 100%
Barometer: 998 hPa
Clouds: Mostly cloudy
Visibility: 6 miles , 10 km
Cloud details: Mostly cloudy 213 m
2020/02/26 10:50 EGOM 261050Z 28013KT 9999 BKN007 01/01 Q0998 GRN
 
EGNC - Carlisle, United Kingdom
Distance from station: SSE 51mi, 82km
Updated: 24/02/2020 16:50
NOT Current
Rain, Mostly cloudy
Rain, Mostly cloudy
 Wind from W
Wind: W 24 mph , 39 km/h, Gust: 37 mph , 59 km/h
Temperature: 4°C
Wind Chill: -2°C
Dew Point: 4°C
Humidity: 100%
Barometer: 993 hPa
Summary: Rain
Clouds: Mostly cloudy
Visibility: 4 miles , 6 km
Cloud details: Mostly cloudy 244 m
2020/02/24 16:50 EGNC 241650Z 26021G32KT 240V300 6000 RA BKN008 04/04 Q0993
EGPF - Glasgow Airport, United Kingdom
Distance from station: WNW 51mi, 82km
Updated: 26/02/2020 10:50
Clear
Clear
 Wind from WSW
Wind: WSW 15 mph , 24 km/h
Temperature: 4°C
Wind Chill: -1°C
Dew Point: 1°C
Humidity: 81%
Barometer: 1000 hPa
Clouds: Clear
Visibility: 6 miles , 10 km
2020/02/26 10:50 EGPF 261050Z AUTO 25013KT 9999 NCD 04/01 Q1000
 
EGQL - Leuchars Raf, United Kingdom
Distance from station: NNE 53mi, 85km
Updated: 26/02/2020 10:50
Clear
Clear
 Wind from W
Wind: W 17 mph , 28 km/h
Temperature: 4°C
Wind Chill: -1°C
Dew Point: 0°C
Humidity: 75%
Barometer: 997 hPa
Summary: Clear
Visibility: greater than 7 miles , 10 km
2020/02/26 10:50 EGQL 261050Z 27015KT CAVOK 04/00 Q0997 BLU
EGPK - Prestwick(Civ/Na, United Kingdom
Distance from station: W 55mi, 89km
Updated: 26/02/2020 10:50
Nearby showers, Partly cloudy
Nearby showers, Partly cloudy
 Wind from W
Wind: W 8 mph , 13 km/h
Temperature: 4°C
Wind Chill: 1°C
Dew Point: 1°C
Humidity: 81%
Barometer: 1001 hPa
Summary: Nearby Showers
Clouds: Partly cloudy
Visibility: 6 miles , 10 km
Cloud details: Few Clouds 457 m
Few Clouds 549 m
Partly cloudy 762 m
2020/02/26 10:50 EGPK 261050Z 28007KT 9999 VCSH FEW015 FEW018CB SCT025 04/01 Q1001
 
EGPN - Dundee/Riverside, United Kingdom
Distance from station: N 56mi, 90km
Updated: 26/02/2020 10:50
Clear
Clear
 Wind from W
Wind: W 17 mph , 28 km/h
Temperature: 5°C
Wind Chill: 1°C
Dew Point: 2°C
Humidity: 81%
Barometer: 997 hPa
Summary: Clear
Visibility: greater than 7 miles , 10 km
2020/02/26 10:50 EGPN 261050Z 26015KT CAVOK 05/02 Q0997
EGNT - Newcastle, United Kingdom
Distance from station: SE 72mi, 116km
Updated: 26/02/2020 10:50
Few Clouds
Few Clouds
 Wind from W
Wind: W 14 mph , 22 km/h
Temperature: 4°C
Wind Chill: -1°C
Dew Point: 2°C
Humidity: 87%
Barometer: 998 hPa
Clouds: Few Clouds
Visibility: 6 miles , 10 km
Cloud details: Few Clouds 732 m
2020/02/26 10:50 EGNT 261050Z 28012KT 9999 FEW024 04/02 Q0998
 
EGNV - Tees-Side, United Kingdom
Distance from station: SE 104mi, 168km
Updated: 26/02/2020 10:50
Partly cloudy
Partly cloudy
 Wind from WNW
Wind: WNW 17 mph , 28 km/h
Temperature: 5°C
Wind Chill: 1°C
Dew Point: 0°C
Humidity: 70%
Barometer: 999 hPa
Clouds: Partly cloudy
Visibility: 6 miles , 10 km
Cloud details: Few Clouds 549 m
Partly cloudy 762 m
2020/02/26 10:50 EGNV 261050Z 29015KT 9999 FEW018 SCT025 05/00 Q0999
EGPD - Aberdeen/Dyce, United Kingdom
Distance from station: NNE 114mi, 183km
Updated: 26/02/2020 10:50
Clear
Clear
 Wind from W
Wind: W 13 mph , 20 km/h
Temperature: 4°C
Wind Chill: -1°C
Dew Point: -1°C
Humidity: 70%
Barometer: 995 hPa
Clouds: Clear
Visibility: 6 miles , 10 km
2020/02/26 10:50 EGPD 261050Z AUTO 28011KT 240V310 9999 NCD 04/M01 Q0995
 
EGNS - Isle Of Man/Rona, United Kingdom
Distance from station: SSW 122mi, 197km
Updated: 26/02/2020 10:50
Few Clouds
Few Clouds
 Wind from W
Wind: W 22 mph , 35 km/h
Temperature: 5°C
Wind Chill: -1°C
Dew Point: 0°C
Humidity: 70%
Barometer: 1004 hPa
Clouds: Few Clouds
Visibility: 6 miles , 10 km
Cloud details: Few Clouds 549 m
2020/02/26 10:50 EGNS 261050Z 28019KT 9999 FEW018 05/00 Q1004 NOSIG
EGAC - Belfast Harbour, United Kingdom
Distance from station: WSW 128mi, 206km
Updated: 26/02/2020 10:50
Few Clouds
Few Clouds
 Wind from W
Wind: W 15 mph , 24 km/h
Temperature: 5°C
Wind Chill: 1°C
Dew Point: 1°C
Humidity: 76%
Barometer: 1004 hPa
Clouds: Few Clouds
Visibility: 6 miles , 10 km
Cloud details: Few Clouds 610 m
2020/02/26 10:50 EGAC 261050Z 26013KT 9999 FEW020CB 05/01 Q1004
 
EGPE - Inverness/Dalcro, United Kingdom
Distance from station: NNW 134mi, 215km
Updated: 26/02/2020 10:50
Partly cloudy
Partly cloudy
 Wind from SW
Wind: SW 15 mph , 24 km/h
Temperature: 3°C
Wind Chill: -2°C
Dew Point: 0°C
Humidity: 81%
Barometer: 996 hPa
Clouds: Partly cloudy
Visibility: 6 miles , 10 km
Cloud details: Few Clouds 457 m
Partly cloudy 671 m
2020/02/26 10:50 EGPE 261050Z 23013KT 9999 FEW015CB SCT022 03/M00 Q0996
XHTML 1.1 | CSS